Wofford Heights, CA (93285)

1:03 PM PDT on September 23, 2014 (GMT -0700)
RAWS WOFFORD HEIGHTS CA US | Change Station
CLOSE
Current Station
Personal Weather Station
Location: Wofford Heights, CA
Elevation: 3149 ft
Nearby Weather Stations

Elev 3149 ft 35.72 °N, 118.50 °W | Updated 1 hour ago

Clear
Clear
85 °F
Feels Like 82 °F
N
2
Wind Variable Wind from WNW
Gusts 9.0 mph

Today
High -- | Low -- °F
--% Chance of Precip.
Yesterday
High -- | Low -- °F
Precip. -- in
6:42 AM 6:49 PM
Waning Crescent, 0% visible
Pressure 30.12 in
Visibility 10.0 miles
Clouds Clear
Heat Index 82 °F
Dew Point 43 °F
Humidity 23%
Rainfall 0.00 in
Snow Depth 1 in , 0 in , 1 in
UV 9 out of 12
Pollen 6.80 out of 12
PM2.5 Moderate
Flu Activity Not available.
METAR KTSP 231955Z AUTO 12009G18KT 10SM CLR 29/M08 A3012 RMK AO2

More Conditions Fewer Conditions

Pressure 30.12 in
Visibility 10.0 miles
Clouds Clear
Heat Index 82 °F
Dew Point 43 °F
Humidity 23%
Rainfall 0.00 in
Snow Depth 1 in , 0 in , 1 in
UV 9 out of 12
Pollen 6.80 out of 12
PM2.5 Moderate
Flu Activity Not available.
METAR KTSP 231955Z AUTO 12009G18KT 10SM CLR 29/M08 A3012 RMK AO2

More Conditions Fewer Conditions

10-Day Weather Forecast

Almanac

Astronomy

Sep. 23, 2014 Rise Set
Actual Time 6:42 AM PDT 6:49 PM PDT
Civil Twilight 6:17 AM PDT 7:14 PM PDT
Nautical Twilight 5:47 AM PDT 7:44 PM PDT
Astronomical Twilight 5:17 AM PDT 8:14 PM PDT
Moon 6:11 AM PDT 6:31 PM PDT
Length of Visible Light 12h 57m
Length of Day
12h 06m
Tomorrow will be 2m 14s shorter.
Waning Crescent, 0% of the Moon is Illuminated
Today
Waning Crescent
Sep 24
New
Oct 1
First Quarter
Oct 8
Full
Oct 15
Last Quarter

Today's Extremes

State Highs State Lows

Community

WunderPhotos

Upload Photos

1,755,784 photos uploaded!

WunderBlogs® & News

By Dr. Jeff Masters
Director of Meteorology, Weather Underground
By Kari Strenfel
Meteorologist, Weather Underground
By Christopher C. Burt
Weather Historian, Weather Underground
September 23, 2014
September 23, 2014
September 23, 2014

Nearby

Air Quality

  Air Quality AQ Index Pollutant
Yesterday Moderate
OZONE
Yesterday Good
PM2.5
Current Moderate
PM2.5
Tuesday Moderate
OZONE
Wednesday Moderate
OZONE
Thursday Moderate
OZONE
Friday Moderate
OZONE
Saturday Moderate
OZONE

Snow Depth

Station Depth Elevation
Summit Meadow 1 in 9122 ft
Adin Mountain 0 in 6200 ft
Monitor Pass 1 in 8350 ft
Leavitt Meadows 0 in 7200 ft
CSS Lab 1 in 6900 ft

Earthquake Activity

City Distance Mag. Time & Date
Running Springs, California 128 miles 2.5 7:26 AM PDT
2014-09-22
Minimum magnitude displayed is 2.5.

Coastal Water Temperatures

Place Temperature
No Stations Reporting

Nearby Weather Stations